Details From ENGM - Oslo Gardermoen
To ENAN - Andoya
Flight Number -
Tags Routegen Generated
Created
Modified
Stats Distance 563 nm / 1,043 km
Max Altitude 20,700 ft / 6,309 m
Waypoints 18
Social Downloads 1
Likes 0
Share VATSIM

Download

Looking for another format? Having issues loading an existing format? Contact us
Advertisement - Login to hide

Notes

Departing runway 1 ENGM. Arriving runway 14 ENAN.

Route

ENGM +60.29_+011.13 +60.30_+011.14 +62.17_+011.99 +64.03_+012.96 +65.89_+014.07 +69.02_+016.37 +69.04_+016.39 +69.05_+016.40 +69.06_+016.41 +69.08_+016.41 +69.09_+016.41 +69.11_+016.41 +69.12_+016.40 +69.14_+016.39 +69.15_+016.37 +69.16_+016.36 ENAN

ID Type Via Altitude (ft/m) Position (lat/lon) Dist (leg/tot) Name
O ENGM APT - 0 / 0 60.21607 / 11.09166 - / 0 nm
+60.29_+011.13 DME - 220 / 67 60.28562 / 11.13191 4 / 4 nm
+60.30_+011.14 DME - 320 / 98 60.29983 / 11.13749 0 / 5 nm
+62.17_+011.99 DME - 20,700 / 6,309 62.16789 / 11.99399 114 / 120 nm
+64.03_+012.96 DME - 20,700 / 6,309 64.03174 / 12.96356 114 / 235 nm
+65.89_+014.07 DME - 20,700 / 6,309 65.88821 / 14.07167 114 / 350 nm
+69.02_+016.37 DME - 20,700 / 6,309 69.02267 / 16.37492 195 / 545 nm
+69.04_+016.39 DME - 3,120 / 951 69.03629 / 16.38860 0 / 546 nm
+69.05_+016.40 DME - 2,810 / 856 69.05029 / 16.39892 0 / 547 nm
+69.06_+016.41 DME - 2,520 / 768 69.06455 / 16.40580 0 / 548 nm
+69.08_+016.41 DME - 2,240 / 683 69.07897 / 16.40918 0 / 549 nm
+69.09_+016.41 DME - 1,980 / 604 69.09344 / 16.40903 0 / 549 nm
+69.11_+016.41 DME - 1,730 / 527 69.10786 / 16.40534 0 / 550 nm
+69.12_+016.40 DME - 1,500 / 457 69.12210 / 16.39814 0 / 551 nm
+69.14_+016.39 DME - 1,280 / 390 69.13607 / 16.38748 0 / 552 nm
+69.15_+016.37 DME - 1,080 / 329 69.14965 / 16.37344 0 / 553 nm
+69.16_+016.36 DME - 890 / 271 69.16274 / 16.35611 0 / 554 nm
O ENAN APT - 0 / 0 69.28793 / 16.15134 8 / 563 nm

Altitude Profile

Advertisement - Login to hide

Weather


0- 5 10 15 20 25 30 35+ Temperature / °C

Clouds and Precipitation
Forecast for 2020-01-29 00:00 UTC. Updated 2 hours ago

Ground ~20,000 ft ~40,000 ft Winds

ENGM

Details ICAO ENGM (OSL)
Name Oslo Gardermoen
Region Norway
Timezone Europe/Oslo (UTC+1.0)
Stats Elevation 681 ft / 208 m (AMSL)
Location 60.194500° 11.098900°
Runways 2
Magnetic Variation 3.749° E

METAR

ENGM 282320Z 03006KT 5000 -SN BR FEW004 BKN007 00/00 Q0985

Decode

TAF

TAF ENGM 281700Z 2818/2918 04008KT 9999 -RASN SCT003 BKN010 TEMPO 2818/2918 2000 SNRA BR OVC003 PROB30 2820/2906 1400 -SN

Decode

Departure Runways

ID Width Length Bearing (true/mag) Surface Threshold Overrun Markings Lighting
01L 148 ft / 45 m 11,789 ft / 3,593 m 16.00° / 12.25° ASPHALT 0 ft / 0 m 486 ft / 148 m PREC-APP CENTERLINE EDGE THRESHOLD ALSF-I TDZ REIL-OMNI
01R 148 ft / 45 m 9,658 ft / 2,944 m 16.05° / 12.30° ASPHALT 0 ft / 0 m 492 ft / 150 m PREC-APP CENTERLINE EDGE THRESHOLD ALSF-II TDZ REIL-OMNI
19L 148 ft / 45 m 9,658 ft / 2,944 m 196.06° / 192.31° ASPHALT 0 ft / 0 m 495 ft / 151 m PREC-APP CENTERLINE EDGE THRESHOLD ALSF-I TDZ REIL-OMNI
19R 148 ft / 45 m 11,789 ft / 3,593 m 196.01° / 192.26° ASPHALT 0 ft / 0 m 492 ft / 150 m PREC-APP CENTERLINE EDGE THRESHOLD ALSF-II TDZ REIL-OMNI

ENAN

Details ICAO ENAN (ANX)
Name ANDOYA
Region Norway
Timezone Europe/Oslo (UTC+1.0)
Stats Elevation 43 ft / 13 m (AMSL)
Location 69.293400° 16.137800°
Runways 2
Magnetic Variation 7.578° E

METAR

ENAN 282320Z AUTO 15018KT 9999 OVC053/// M03/M07 Q0997

Decode

TAF

TAF ENAN 281700Z 2818/2918 13020KT 9999 FEW045 BKN080= TAF ENDU 281700Z 2818/2918 12008KT 9999 FEW030 SCT080 TEMPO 2818/2824 12015G25KT

Decode

Destination Runways

ID Width Length Bearing (true/mag) Surface Threshold Overrun Markings Lighting
03 148 ft / 45 m 5,468 ft / 1,667 m 31.41° / 23.83° ASPHALT 0 ft / 0 m 0 ft / 0 m APP EDGE THRESHOLD MALS
14 148 ft / 45 m 9,830 ft / 2,996 m 149.75° / 142.17° ASPHALT 823 ft / 251 m 0 ft / 0 m APP EDGE THRESHOLD MALS
21 148 ft / 45 m 5,468 ft / 1,667 m 211.43° / 203.86° ASPHALT 0 ft / 0 m 0 ft / 0 m APP EDGE THRESHOLD MALS
32 148 ft / 45 m 9,830 ft / 2,996 m 329.79° / 322.21° ASPHALT 886 ft / 270 m 0 ft / 0 m APP EDGE THRESHOLD MALS

Approach Navaids

Runway Type Ident Frequency Range Bearing (true/mag) Slope Elevation
14 LOC-LOC AN 109.10 MHz 18 nm / 33 km 149.79° / 142.21 ° - 29 ft / 9 m (AMSL)
14 MM MM - - 149.77° / 142.19 ° - 60 ft / 18 m (AMSL)

Popular Alternatives